Time;durP1;ratioP1;P1;durP2;ratioP2;P2;SDS_P1;SDS_P2;PMS_P1;PMS_P2;Temp;Humidity;BMP_temperature;BMP_pressure;BME280_temperature;BME280_humidity;BME280_pressure;Samples;Min_cycle;Max_cycle;Signal;HPM_P1;HPM_P2
2021/08/31 00:02:02;;;;;;;12.40;9.80;;;;;;;13.86;97.92;99990.81;5113698;28;20036;-74
2021/08/31 00:04:30;;;;;;;15.48;9.88;;;;;;;13.75;98.48;99988.97;5113618;28;20397;-74
2021/08/31 00:07:00;;;;;;;17.10;10.48;;;;;;;13.66;99.11;99985.19;5113384;28;20481;-76
2021/08/31 00:09:29;;;;;;;12.98;9.95;;;;;;;13.63;99.37;99982.75;5113551;28;20040;-75
2021/08/31 00:12:01;;;;;;;14.05;10.60;;;;;;;13.68;99.36;99975.19;5112158;28;20397;-75
2021/08/31 00:14:29;;;;;;;15.23;9.73;;;;;;;13.68;99.27;99975.19;5113525;28;20039;-76
2021/08/31 00:16:57;;;;;;;13.40;9.73;;;;;;;13.68;99.62;99987.75;5113139;28;20047;-76
2021/08/31 00:19:25;;;;;;;12.55;9.60;;;;;;;13.52;100.00;99988.09;5112160;28;20069;-76
2021/08/31 00:21:54;;;;;;;14.77;10.07;;;;;;;13.50;100.00;99990.00;5113118;28;20035;-74
2021/08/31 00:24:25;;;;;;;18.05;10.85;;;;;;;13.41;100.00;99990.69;5112078;28;20085;-76
2021/08/31 00:26:54;;;;;;;12.00;9.75;;;;;;;13.39;100.00;99998.84;5112868;28;20040;-76
2021/08/31 00:29:25;;;;;;;12.85;9.68;;;;;;;13.36;100.00;99993.75;5113631;28;20071;-77
2021/08/31 00:31:55;;;;;;;14.50;10.07;;;;;;;13.29;100.00;99992.50;5114046;28;20070;-77
2021/08/31 00:34:25;;;;;;;14.13;10.15;;;;;;;13.28;100.00;100000.66;5117405;28;20065;-77
2021/08/31 00:36:53;;;;;;;12.50;10.43;;;;;;;13.24;100.00;100000.03;5116860;28;20118;-77
2021/08/31 00:39:25;;;;;;;13.07;10.63;;;;;;;13.21;100.00;100000.25;5117321;28;20079;-75
2021/08/31 00:41:53;;;;;;;13.98;10.18;;;;;;;13.21;100.00;99997.56;5116943;27;20440;-76
2021/08/31 00:44:23;;;;;;;14.65;10.63;;;;;;;13.40;100.00;100005.06;5117376;28;20048;-78
2021/08/31 00:46:52;;;;;;;17.23;10.88;;;;;;;13.29;100.00;100007.72;5116864;28;20089;-75
2021/08/31 00:49:20;;;;;;;15.88;9.77;;;;;;;13.19;100.00;100002.19;5117285;28;20043;-75
2021/08/31 00:51:49;;;;;;;14.38;10.65;;;;;;;13.16;100.00;100003.25;5116522;28;20047;-75
2021/08/31 00:54:18;;;;;;;12.52;10.15;;;;;;;13.13;100.00;100008.84;5117034;28;20476;-77
2021/08/31 00:56:49;;;;;;;14.95;10.48;;;;;;;13.15;100.00;100006.91;5115669;28;20066;-76
2021/08/31 00:59:20;;;;;;;12.52;9.98;;;;;;;13.28;100.00;100006.00;5117186;28;20048;-76
2021/08/31 01:01:50;;;;;;;12.05;9.70;;;;;;;13.52;100.00;100009.53;5116615;28;20497;-76
2021/08/31 01:04:22;;;;;;;12.55;9.95;;;;;;;13.57;100.00;100018.03;5117124;28;20130;-76
2021/08/31 01:06:52;;;;;;;10.98;8.43;;;;;;;13.83;98.73;100009.84;5116322;28;20123;-77
2021/08/31 01:09:21;;;;;;;12.73;8.52;;;;;;;13.75;98.84;100011.28;5116741;28;20084;-78
2021/08/31 01:11:53;;;;;;;12.95;8.15;;;;;;;13.68;99.61;100017.22;5116198;28;20085;-77
2021/08/31 01:14:22;;;;;;;9.95;7.95;;;;;;;13.69;99.64;100016.25;5116478;28;20050;-76
2021/08/31 01:16:51;;;;;;;13.57;8.20;;;;;;;13.65;99.55;100021.00;5116285;28;20507;-76
2021/08/31 01:19:19;;;;;;;13.02;9.10;;;;;;;13.54;100.00;100023.66;5116591;28;20071;-75
2021/08/31 01:21:47;;;;;;;10.60;8.30;;;;;;;13.48;100.00;100026.78;5116177;28;20134;-77
2021/08/31 01:24:16;;;;;;;12.50;9.40;;;;;;;13.44;100.00;100023.50;5116434;28;20092;-77
2021/08/31 01:26:50;;;;;;;12.32;9.27;;;;;;;13.45;100.00;100014.47;5115956;28;20101;-77
2021/08/31 01:29:18;;;;;;;11.70;8.77;;;;;;;13.46;100.00;100023.38;5116539;28;20065;-73
2021/08/31 01:31:47;;;;;;;11.98;9.07;;;;;;;13.34;100.00;100022.47;5116034;28;20035;-73
2021/08/31 01:34:19;;;;;;;11.73;9.13;;;;;;;13.29;100.00;100023.78;5116324;28;20404;-73
2021/08/31 01:36:48;;;;;;;13.32;9.38;;;;;;;13.25;100.00;100017.81;5115772;28;20050;-74
2021/08/31 01:39:16;;;;;;;12.50;9.60;;;;;;;13.17;100.00;100021.03;5115946;28;20043;-80
2021/08/31 01:41:50;;;;;;;9.52;7.95;;;;;;;13.19;100.00;100015.56;5114423;28;20416;-80
2021/08/31 01:44:18;;;;;;;11.18;8.98;;;;;;;13.34;100.00;100018.94;5115253;28;20039;-80
2021/08/31 01:46:47;;;;;;;12.57;9.25;;;;;;;13.46;100.00;100007.28;5115483;28;20040;-80
2021/08/31 01:49:15;;;;;;;11.75;8.43;;;;;;;13.60;100.00;100011.59;5115820;28;20043;-78
2021/08/31 01:51:44;;;;;;;9.57;7.28;;;;;;;13.64;99.70;100013.94;5115705;28;20079;-78
2021/08/31 01:54:15;;;;;;;9.88;7.80;;;;;;;13.77;98.87;100010.31;5115592;28;20048;-78
2021/08/31 01:56:44;;;;;;;11.77;8.35;;;;;;;13.70;99.16;100009.91;5115605;28;20047;-79
2021/08/31 01:59:13;;;;;;;11.50;8.77;;;;;;;13.66;99.29;100016.50;5116027;28;20043;-78
2021/08/31 02:01:44;;;;;;;10.43;7.85;;;;;;;13.50;100.00;100016.78;5115298;28;20075;-79
2021/08/31 02:04:13;;;;;;;10.23;7.90;;;;;;;13.33;100.00;100020.78;5115896;28;20043;-78
2021/08/31 02:06:43;;;;;;;9.38;7.35;;;;;;;13.29;100.00;100024.63;5115195;28;20459;-79
2021/08/31 02:09:11;;;;;;;8.95;7.15;;;;;;;13.38;100.00;100028.44;5115360;28;20039;-78
2021/08/31 02:11:40;;;;;;;8.57;7.15;;;;;;;13.46;100.00;100031.41;5115212;28;20047;-77
2021/08/31 02:14:08;;;;;;;9.75;7.20;;;;;;;13.51;100.00;100031.94;5115563;28;20044;-78
2021/08/31 02:16:39;;;;;;;10.23;7.97;;;;;;;13.52;100.00;100030.94;5115449;28;20040;-77
2021/08/31 02:19:10;;;;;;;9.90;7.57;;;;;;;13.60;100.00;100031.19;5115708;28;20043;-77
2021/08/31 02:21:38;;;;;;;9.63;7.55;;;;;;;13.69;99.85;100027.81;5115537;28;20187;-77
2021/08/31 02:24:06;;;;;;;10.32;7.50;;;;;;;13.71;99.70;100025.03;5114972;28;20093;-78
2021/08/31 02:26:35;;;;;;;8.40;6.97;;;;;;;13.69;99.72;100022.47;5115349;28;20075;-77
2021/08/31 02:29:03;;;;;;;9.18;7.07;;;;;;;13.52;100.00;100024.75;5114770;28;20035;-78
2021/08/31 02:31:32;;;;;;;9.13;7.60;;;;;;;13.36;100.00;100025.03;5115300;28;20042;-77
2021/08/31 02:34:04;;;;;;;11.25;8.15;;;;;;;13.25;100.00;100022.31;5114886;28;20048;-78
2021/08/31 02:36:33;;;;;;;12.75;8.38;;;;;;;13.12;100.00;100016.97;5115212;28;20043;-78
2021/08/31 02:39:01;;;;;;;10.25;8.48;;;;;;;13.04;100.00;100020.22;5114587;28;20126;-78
2021/08/31 02:41:29;;;;;;;14.85;9.23;;;;;;;12.98;100.00;100026.03;5113614;28;20056;-78
2021/08/31 02:43:59;;;;;;;16.80;10.15;;;;;;;12.92;100.00;100022.94;5114729;28;20071;-84
2021/08/31 02:46:28;;;;;;;14.75;10.02;;;;;;;12.86;100.00;100018.91;5114920;28;20507;-84
2021/08/31 02:48:56;;;;;;;13.77;9.88;;;;;;;12.84;100.00;100018.16;5114528;28;20044;-77
2021/08/31 02:51:26;;;;;;;13.27;9.98;;;;;;;12.85;100.00;100003.81;5115008;28;20465;-77
2021/08/31 02:53:54;;;;;;;13.98;9.73;;;;;;;12.86;100.00;100001.03;5114349;28;20075;-77
2021/08/31 02:56:22;;;;;;;11.52;9.23;;;;;;;12.80;100.00;99996.09;5114523;28;20085;-75
2021/08/31 02:58:51;;;;;;;14.48;9.85;;;;;;;12.83;100.00;100006.56;5114085;28;20070;-75
2021/08/31 03:01:30;;;;;;;12.70;10.00;;;;;;;12.86;100.00;100008.19;5114709;28;20043;-77
2021/08/31 03:03:59;;;;;;;15.02;9.75;;;;;;;12.76;100.00;100004.50;5114480;28;20069;-78
2021/08/31 03:06:30;;;;;;;12.60;9.65;;;;;;;12.77;100.00;100003.53;5114847;28;20047;-77
2021/08/31 03:09:00;;;;;;;12.13;9.52;;;;;;;12.83;100.00;100005.72;5114217;28;20422;-83
2021/08/31 03:11:29;;;;;;;14.60;10.15;;;;;;;12.82;100.00;100012.06;5114699;28;20047;-81
2021/08/31 03:13:57;;;;;;;12.65;9.50;;;;;;;12.75;100.00;100013.50;5113844;28;20039;-76
2021/08/31 03:16:25;;;;;;;12.13;9.35;;;;;;;12.67;100.00;100013.19;5114383;28;20036;-77
2021/08/31 03:18:54;;;;;;;13.27;9.30;;;;;;;12.63;100.00;100009.00;5114108;28;20472;-78
2021/08/31 03:21:25;;;;;;;12.60;9.48;;;;;;;12.60;100.00;100010.94;5114309;28;20043;-80
2021/08/31 03:23:56;;;;;;;15.35;10.10;;;;;;;12.66;100.00;100015.00;5113730;28;20489;-81
2021/08/31 03:26:26;;;;;;;11.93;9.35;;;;;;;12.67;100.00;100021.22;5114247;28;20071;-80
2021/08/31 03:28:56;;;;;;;11.65;9.23;;;;;;;12.64;100.00;100019.59;5114100;28;20039;-81
2021/08/31 03:31:25;;;;;;;14.45;9.48;;;;;;;12.61;100.00;100011.78;5114319;28;20050;-79
2021/08/31 03:33:56;;;;;;;14.68;10.32;;;;;;;12.59;100.00;100011.91;5113441;28;20476;-81
2021/08/31 03:36:24;;;;;;;15.23;10.38;;;;;;;12.60;100.00;100008.28;5114038;28;20477;-75
2021/08/31 03:38:56;;;;;;;14.32;10.55;;;;;;;12.57;100.00;100011.19;5113638;28;20066;-76
2021/08/31 03:41:25;;;;;;;15.15;10.85;;;;;;;12.54;100.00;100016.72;5113567;28;20055;-75
2021/08/31 03:43:53;;;;;;;16.40;10.68;;;;;;;12.52;100.00;100023.16;5113319;28;20066;-76
2021/08/31 03:46:21;;;;;;;14.98;10.80;;;;;;;12.51;100.00;100019.63;5113936;28;20044;-76
2021/08/31 03:48:52;;;;;;;14.65;10.45;;;;;;;12.52;100.00;100017.81;5113459;28;20512;-75
2021/08/31 03:51:21;;;;;;;16.48;11.77;;;;;;;12.54;100.00;100024.75;5113927;28;20118;-74
2021/08/31 03:53:49;;;;;;;16.85;11.45;;;;;;;12.59;100.00;100019.09;5113356;28;20036;-75
2021/08/31 03:56:19;;;;;;;18.45;10.68;;;;;;;12.65;100.00;100020.47;5113598;28;20545;-77
2021/08/31 03:58:50;;;;;;;15.02;10.77;;;;;;;12.73;100.00;100026.94;5113732;28;20044;-77
2021/08/31 04:01:18;;;;;;;14.15;10.32;;;;;;;12.74;100.00;100027.81;5113678;28;20047;-77
2021/08/31 04:03:46;;;;;;;13.15;9.88;;;;;;;12.76;100.00;100031.25;5113570;28;20397;-77
2021/08/31 04:06:15;;;;;;;12.52;9.70;;;;;;;12.72;100.00;100035.94;5113055;28;20062;-77
2021/08/31 04:08:43;;;;;;;13.63;9.95;;;;;;;12.65;100.00;100040.06;5113247;28;20067;-77
2021/08/31 04:11:11;;;;;;;14.80;9.80;;;;;;;12.79;100.00;100045.25;5113070;28;20052;-75
2021/08/31 04:13:41;;;;;;;20.02;10.10;;;;;;;12.84;100.00;100052.97;5113182;28;20039;-75
2021/08/31 04:16:11;;;;;;;11.57;9.32;;;;;;;12.83;100.00;100046.72;5113245;28;20436;-78
2021/08/31 04:18:39;;;;;;;12.23;9.45;;;;;;;12.80;100.00;100062.16;5113488;28;20036;-78
2021/08/31 04:21:09;;;;;;;14.50;9.55;;;;;;;12.88;100.00;100065.16;5113176;28;20146;-78
2021/08/31 04:23:40;;;;;;;13.82;9.60;;;;;;;12.92;100.00;100069.31;5113389;28;20087;-78
2021/08/31 04:26:08;;;;;;;13.45;9.23;;;;;;;12.92;100.00;100069.31;5113197;28;20039;-77
2021/08/31 04:28:36;;;;;;;11.07;9.85;;;;;;;12.88;100.00;100070.50;5113332;28;20043;-77
2021/08/31 04:31:05;;;;;;;12.60;9.40;;;;;;;13.00;100.00;100066.06;5112835;28;20407;-77
2021/08/31 04:33:34;;;;;;;10.98;8.02;;;;;;;13.24;100.00;100066.13;5112965;28;20047;-78
2021/08/31 04:36:03;;;;;;;11.85;7.93;;;;;;;13.68;100.00;100069.00;5112879;28;20044;-78
2021/08/31 04:38:34;;;;;;;11.68;7.65;;;;;;;13.70;100.00;100066.19;5112096;28;20047;-76
2021/08/31 04:41:02;;;;;;;9.48;7.78;;;;;;;13.79;99.97;100054.78;5112758;28;20108;-77
2021/08/31 04:43:30;;;;;;;10.60;7.53;;;;;;;13.92;99.35;100066.28;5113060;28;20459;-75
2021/08/31 04:45:59;;;;;;;11.77;7.53;;;;;;;13.99;99.14;100063.97;5112881;28;20040;-76
2021/08/31 04:48:29;;;;;;;9.80;7.00;;;;;;;14.13;98.66;100069.13;5113121;28;20067;-74
2021/08/31 04:50:57;;;;;;;10.02;6.85;;;;;;;14.58;96.46;100067.38;5112798;28;20481;-74
2021/08/31 04:53:25;;;;;;;8.43;6.07;;;;;;;14.81;94.88;100065.53;5112828;28;20408;-75
2021/08/31 04:55:54;;;;;;;8.32;6.78;;;;;;;14.82;94.64;100055.63;5112778;28;20039;-74
2021/08/31 04:58:22;;;;;;;8.60;6.68;;;;;;;14.77;94.93;100057.84;5113063;28;20476;-76
2021/08/31 05:00:53;;;;;;;8.45;5.90;;;;;;;15.06;93.85;100058.19;5112763;28;20047;-77
2021/08/31 05:03:21;;;;;;;12.35;6.43;;;;;;;14.96;94.07;100051.81;5112713;28;20044;-74
2021/08/31 05:05:53;;;;;;;8.68;5.90;;;;;;;15.02;94.01;100052.19;5112666;28;20043;-73
2021/08/31 05:08:22;;;;;;;8.43;6.03;;;;;;;15.20;92.71;100046.28;5112440;28;20051;-73
2021/08/31 05:10:53;;;;;;;8.68;5.95;;;;;;;15.21;93.10;100034.56;5113020;28;20039;-67
2021/08/31 05:13:21;;;;;;;8.57;6.20;;;;;;;15.22;93.24;100030.88;5112696;28;20480;-69
2021/08/31 05:15:49;;;;;;;7.55;5.75;;;;;;;15.21;93.28;100031.88;5112498;28;20039;-71
2021/08/31 05:18:20;;;;;;;8.32;5.65;;;;;;;15.37;92.74;100033.16;5112263;28;20472;-70
2021/08/31 05:20:57;;;;;;;7.80;5.85;;;;;;;15.39;92.63;100041.09;5116556;28;20051;-70
2021/08/31 05:23:27;;;;;;;9.48;6.03;;;;;;;15.27;92.86;100036.75;5116648;28;20040;-70
2021/08/31 05:25:55;;;;;;;8.80;6.10;;;;;;;15.20;93.19;100033.69;5116656;28;20092;-69
2021/08/31 05:28:23;;;;;;;7.90;5.80;;;;;;;15.13;93.39;100030.66;5116379;28;20075;-70
2021/08/31 05:30:52;;;;;;;8.95;6.22;;;;;;;15.15;93.64;100033.22;5116477;28;20069;-69
2021/08/31 05:33:20;;;;;;;7.95;5.78;;;;;;;15.15;93.29;100030.53;5116177;28;20127;-70
2021/08/31 05:35:48;;;;;;;8.32;6.53;;;;;;;15.17;93.46;100018.69;5116100;28;20048;-69
2021/08/31 05:38:17;;;;;;;11.10;6.38;;;;;;;15.21;93.55;100024.66;5115583;28;20039;-70
2021/08/31 05:40:46;;;;;;;7.93;5.80;;;;;;;15.20;93.52;100022.94;5116028;28;20085;-69
2021/08/31 05:43:14;;;;;;;11.75;6.32;;;;;;;15.20;93.55;100025.63;5116025;28;20097;-69
2021/08/31 05:45:43;;;;;;;9.10;6.43;;;;;;;15.25;93.55;100025.25;5116240;28;20130;-69
2021/08/31 05:48:12;;;;;;;9.05;6.75;;;;;;;15.35;93.08;100031.59;5115633;28;20048;-69
2021/08/31 05:50:41;;;;;;;9.90;7.22;;;;;;;15.45;92.42;100027.16;5114727;28;20054;-69
2021/08/31 05:53:10;;;;;;;11.38;7.00;;;;;;;15.60;91.79;100027.66;5114791;28;20047;-70
2021/08/31 05:55:44;;;;;;;13.73;7.40;;;;;;;16.02;90.65;100025.91;5116101;28;20047;-68
2021/08/31 05:58:14;;;;;;;13.05;7.90;;;;;;;16.60;88.26;100039.63;5114054;28;20044;-69
2021/08/31 06:00:43;;;;;;;12.73;8.18;;;;;;;17.13;84.96;100032.16;5115988;28;20044;-68
2021/08/31 06:03:11;;;;;;;12.75;7.90;;;;;;;17.46;82.66;100038.97;5115403;28;20131;-71
2021/08/31 06:05:39;;;;;;;16.30;8.60;;;;;;;17.47;81.90;100039.84;5115031;28;20122;-72
2021/08/31 06:08:08;;;;;;;21.83;9.77;;;;;;;17.26;82.51;100033.72;5114641;28;20043;-72
2021/08/31 06:10:36;;;;;;;14.35;8.95;;;;;;;17.27;82.94;100032.72;5114586;28;20039;-72
2021/08/31 06:13:06;;;;;;;14.88;8.68;;;;;;;17.28;82.86;100034.44;5114738;28;20042;-72
2021/08/31 06:15:34;;;;;;;15.00;8.73;;;;;;;17.70;81.62;100030.50;5114955;28;20370;-72
2021/08/31 06:18:03;;;;;;;13.90;7.93;;;;;;;18.42;78.53;100039.00;5114775;28;20032;-75
2021/08/31 06:20:32;;;;;;;14.85;7.53;;;;;;;18.37;77.56;100025.09;5115343;28;20487;-68
2021/08/31 06:23:00;;;;;;;11.02;6.85;;;;;;;18.81;76.17;100037.84;5114883;28;20047;-68
2021/08/31 06:25:29;;;;;;;11.50;6.50;;;;;;;18.74;76.17;100036.78;5114962;28;20040;-69
2021/08/31 06:27:58;;;;;;;5.95;2.75;;;;;;;18.67;74.24;100027.56;5114978;28;20042;-69
2021/08/31 06:30:28;;;;;;;4.28;2.80;;;;;;;18.35;75.86;100032.50;5114303;28;20122;-67
2021/08/31 06:32:56;;;;;;;4.00;2.30;;;;;;;18.54;75.11;100046.78;5115084;28;20047;-67
2021/08/31 06:35:24;;;;;;;3.85;2.70;;;;;;;18.02;76.37;100034.72;5114909;28;20036;-68
2021/08/31 06:37:55;;;;;;;4.25;2.50;;;;;;;17.76;77.92;100036.31;5114231;28;20055;-67
2021/08/31 06:40:26;;;;;;;5.93;2.60;;;;;;;17.51;79.17;100046.66;5113554;28;20093;-69
2021/08/31 06:42:54;;;;;;;4.97;2.75;;;;;;;17.38;80.29;100046.09;5114699;28;20134;-68
2021/08/31 06:45:23;;;;;;;6.60;2.97;;;;;;;17.40;78.86;100030.63;5114309;28;20071;-67
2021/08/31 06:47:52;;;;;;;5.65;2.50;;;;;;;17.49;78.76;100037.84;5114704;28;20051;-68
2021/08/31 06:50:21;;;;;;;5.70;2.63;;;;;;;17.42;79.84;100039.41;5114735;28;20045;-73
2021/08/31 06:52:49;;;;;;;4.15;2.25;;;;;;;17.53;78.81;100050.06;5114905;28;20043;-70
2021/08/31 06:55:18;;;;;;;6.32;2.70;;;;;;;17.57;79.20;100048.78;5114483;28;20043;-71
2021/08/31 06:57:47;;;;;;;5.50;2.40;;;;;;;17.72;77.87;100051.94;5114575;28;20385;-69
2021/08/31 07:00:16;;;;;;;2.97;2.00;;;;;;;17.68;77.88;100056.75;5114179;27;20098;-71
2021/08/31 07:02:45;;;;;;;4.00;2.30;;;;;;;17.61;78.96;100052.03;5114695;28;20046;-70
2021/08/31 07:05:14;;;;;;;3.33;2.00;;;;;;;17.76;78.33;100047.09;5114156;28;20048;-71
2021/08/31 07:07:45;;;;;;;3.50;2.00;;;;;;;17.55;79.27;100056.16;5113312;28;20338;-68
2021/08/31 07:10:16;;;;;;;3.45;2.17;;;;;;;17.60;79.04;100053.03;5114259;28;20100;-69
2021/08/31 07:12:44;;;;;;;3.88;2.22;;;;;;;17.69;79.05;100055.78;5114731;28;20044;-70
2021/08/31 07:15:13;;;;;;;5.43;2.22;;;;;;;18.00;78.09;100056.44;5114093;28;20039;-70
2021/08/31 07:17:43;;;;;;;5.78;2.25;;;;;;;17.86;78.79;100050.66;5114266;28;20552;-70
2021/08/31 07:20:12;;;;;;;5.07;2.30;;;;;;;17.97;78.27;100055.91;5114052;28;20496;-70
2021/08/31 07:22:45;;;;;;;7.88;2.22;;;;;;;18.00;77.45;100061.00;5114268;28;20093;-69
2021/08/31 07:25:14;;;;;;;5.70;2.20;;;;;;;18.21;77.19;100056.25;5114079;28;20043;-70
2021/08/31 07:27:47;;;;;;;5.45;2.33;;;;;;;18.34;76.67;100061.34;5114430;28;20082;-70
2021/08/31 07:30:15;;;;;;;5.22;2.17;;;;;;;18.66;74.66;100052.88;5114100;28;20040;-70
2021/08/31 07:32:44;;;;;;;4.28;1.67;;;;;;;18.86;72.97;100056.34;5113792;28;20092;-70
2021/08/31 07:35:13;;;;;;;4.38;2.00;;;;;;;18.91;73.70;100062.13;5113458;28;20062;-70
2021/08/31 07:37:43;;;;;;;2.70;1.60;;;;;;;19.06;72.58;100062.50;5114002;28;20040;-70
2021/08/31 07:40:14;;;;;;;2.45;1.60;;;;;;;18.94;72.72;100061.00;5112652;28;20075;-70
2021/08/31 07:42:42;;;;;;;2.42;1.50;;;;;;;19.15;72.03;100062.44;5113257;28;20481;-70
2021/08/31 07:45:13;;;;;;;2.28;1.35;;;;;;;19.39;70.71;100061.81;5113582;28;20046;-70
2021/08/31 07:47:41;;;;;;;3.15;1.63;;;;;;;19.24;70.96;100066.06;5113916;28;20047;-70
2021/08/31 07:50:11;;;;;;;2.53;1.35;;;;;;;19.06;71.17;100066.03;5113338;28;20044;-69
2021/08/31 07:52:39;;;;;;;3.80;1.50;;;;;;;19.17;72.33;100068.53;5113849;28;20046;-69
2021/08/31 07:55:11;;;;;;;2.60;1.40;;;;;;;18.84;72.06;100056.50;5113857;28;20044;-70
2021/08/31 07:57:40;;;;;;;2.72;1.10;;;;;;;18.82;72.39;100053.09;5112711;28;20070;-69
2021/08/31 08:00:10;;;;;;;2.58;1.35;;;;;;;18.77;72.45;100055.38;5112135;28;20047;-70
2021/08/31 08:02:38;;;;;;;1.70;1.30;;;;;;;18.77;72.58;100055.38;5112180;28;20054;-70
2021/08/31 08:05:08;;;;;;;2.22;1.42;;;;;;;18.85;72.79;100062.75;5113604;28;20042;-69
2021/08/31 08:07:36;;;;;;;4.50;1.65;;;;;;;18.88;72.03;100063.28;5113050;28;20467;-70
2021/08/31 08:10:06;;;;;;;2.15;1.45;;;;;;;19.01;72.70;100062.06;5113618;28;20050;-70
2021/08/31 08:12:35;;;;;;;3.50;1.60;;;;;;;18.83;72.62;100065.59;5111718;28;20052;-69
2021/08/31 08:15:05;;;;;;;2.63;1.70;;;;;;;18.85;73.08;100070.84;5113391;28;20593;-69
2021/08/31 08:17:33;;;;;;;3.38;1.55;;;;;;;18.85;72.08;100073.56;5112001;28;20070;-70
2021/08/31 08:20:01;;;;;;;3.30;1.70;;;;;;;18.75;72.31;100068.19;5113040;28;20047;-69
2021/08/31 08:22:30;;;;;;;5.00;2.03;;;;;;;18.93;71.65;100070.13;5112541;28;20252;-70
2021/08/31 08:24:58;;;;;;;3.22;1.70;;;;;;;19.09;70.79;100064.88;5113233;28;20047;-69
2021/08/31 08:27:26;;;;;;;5.25;1.90;;;;;;;19.21;70.99;100069.09;5113194;28;20035;-70
2021/08/31 08:29:56;;;;;;;3.05;1.70;;;;;;;19.16;70.89;100061.44;5129463;28;20059;-69
2021/08/31 08:32:24;;;;;;;3.25;1.90;;;;;;;19.16;71.10;100072.25;5113013;28;20074;-70
2021/08/31 08:34:52;;;;;;;3.33;1.60;;;;;;;19.11;70.92;100052.94;5113359;28;20044;-69
2021/08/31 08:37:25;;;;;;;2.60;1.55;;;;;;;19.09;70.12;100052.22;5112771;28;20044;-69
2021/08/31 08:39:53;;;;;;;3.25;1.75;;;;;;;19.30;70.37;100059.19;5113148;28;20036;-69
2021/08/31 08:42:21;;;;;;;3.60;1.70;;;;;;;19.25;69.78;100048.84;5112671;28;20050;-69
2021/08/31 08:44:50;;;;;;;2.80;1.80;;;;;;;19.25;69.60;100048.84;5113143;28;20089;-70
2021/08/31 08:47:19;;;;;;;4.45;1.70;;;;;;;19.37;69.92;100050.31;5112764;28;20126;-70
2021/08/31 08:49:49;;;;;;;3.28;1.60;;;;;;;19.66;68.32;100038.44;5113112;28;20047;-70
2021/08/31 08:52:17;;;;;;;2.78;1.83;;;;;;;19.95;68.40;100041.72;5112943;28;20044;-70
2021/08/31 08:54:45;;;;;;;3.85;1.80;;;;;;;19.91;67.29;100044.94;5116874;28;20048;-70
2021/08/31 08:57:17;;;;;;;3.58;1.98;;;;;;;19.97;66.24;100039.72;5116883;28;20046;-69
2021/08/31 08:59:48;;;;;;;3.28;1.83;;;;;;;19.98;66.35;100027.91;5116702;28;20043;-69
2021/08/31 09:05:12;;;;;;;2.58;1.60;;;;;;;19.94;66.71;100040.03;5152258;27;20140;-69
2021/08/31 09:07:43;;;;;;;3.13;1.67;;;;;;;19.95;65.58;100041.72;5131413;28;20050;-70
2021/08/31 09:10:17;;;;;;;3.40;2.10;;;;;;;19.88;66.00;100035.28;5130250;28;20055;-70
2021/08/31 09:12:50;;;;;;;5.22;2.33;;;;;;;19.93;66.36;100043.75;5131536;28;20110;-69
2021/08/31 09:15:19;;;;;;;;;;;;;;;19.97;66.07;100038.88;5131637;28;20389;-70
2021/08/31 09:18:16;;;;;;;3.92;2.15;;;;;;;19.94;66.15;100042.75;5131154;27;20018;-70
2021/08/31 09:21:04;;;;;;;3.40;2.28;;;;;;;20.03;66.31;100032.84;5123138;27;20048;-70
2021/08/31 09:23:34;;;;;;;2.90;1.83;;;;;;;20.03;65.22;100030.13;5130983;28;20046;-70
2021/08/31 09:26:08;;;;;;;4.72;2.60;;;;;;;20.39;64.28;100028.16;5131359;28;20035;-69
2021/08/31 09:28:38;;;;;;;5.40;2.60;;;;;;;20.57;64.52;100028.97;5130739;28;20039;-70
2021/08/31 09:31:09;;;;;;;7.75;2.28;;;;;;;20.71;63.55;100032.06;5129902;28;20488;-70
2021/08/31 09:33:40;;;;;;;3.58;2.00;;;;;;;20.56;63.11;100031.84;5130580;28;20504;-70
2021/08/31 09:36:13;;;;;;;5.15;1.95;;;;;;;20.52;63.31;100044.84;5130764;28;20419;-70
2021/08/31 09:38:53;;;;;;;6.03;2.22;;;;;;;20.33;64.57;100038.78;5130795;28;20047;-69
2021/08/31 09:41:36;;;;;;;3.78;2.10;;;;;;;20.29;65.25;100030.13;5129655;28;20051;-70
2021/08/31 09:44:06;;;;;;;;;;;;;;;20.38;65.43;100036.47;5131313;28;20465;-68
2021/08/31 09:46:54;;;;;;;4.07;2.35;;;;;;;20.36;64.99;100027.63;5130230;27;20026;-70
2021/08/31 09:49:26;;;;;;;6.18;2.58;;;;;;;20.58;64.21;100027.97;5129412;28;20050;-70
2021/08/31 09:52:07;;;;;;;2.80;2.00;;;;;;;20.57;64.10;100028.97;5129702;27;20055;-69
2021/08/31 09:54:37;;;;;;;3.72;2.38;;;;;;;20.85;63.85;100035.03;5130228;28;20072;-70
2021/08/31 09:57:26;;;;;;;4.30;2.45;;;;;;;21.00;62.71;100027.09;5130510;28;20490;-70
2021/08/31 09:59:55;;;;;;;5.22;2.63;;;;;;;21.23;61.81;100029.19;5130528;28;20149;-70
2021/08/31 10:02:24;;;;;;;5.25;2.40;;;;;;;21.39;61.31;100021.97;5130238;28;20494;-70
2021/08/31 10:04:54;;;;;;;4.13;2.25;;;;;;;21.34;61.02;100026.22;5129483;27;20043;-70
2021/08/31 10:07:24;;;;;;;4.18;2.15;;;;;;;21.29;60.13;100012.28;5130236;27;20047;-70
2021/08/31 10:09:54;;;;;;;5.07;2.08;;;;;;;21.36;60.43;100005.19;5130451;28;20088;-69
2021/08/31 10:12:24;;;;;;;4.00;2.08;;;;;;;21.57;60.19;100005.53;5129900;28;20039;-70
2021/08/31 10:14:55;;;;;;;3.88;2.22;;;;;;;21.90;58.38;99992.78;5126307;28;20048;-70
2021/08/31 10:17:26;;;;;;;3.97;2.00;;;;;;;21.86;58.24;100007.75;5116278;28;20391;-70
2021/08/31 10:19:58;;;;;;;4.60;2.17;;;;;;;21.59;59.27;100006.22;5116092;28;20448;-70
2021/08/31 10:22:28;;;;;;;3.35;2.10;;;;;;;21.60;58.35;100007.91;5116261;28;20096;-70
2021/08/31 10:24:57;;;;;;;2.88;1.83;;;;;;;21.62;58.95;99995.03;5116793;28;20044;-70
2021/08/31 10:27:33;;;;;;;2.60;1.50;;;;;;;21.42;58.98;99993.63;5115581;28;20042;-70
2021/08/31 10:30:37;;;;;;;2.95;1.90;;;;;;;21.40;59.23;99998.41;5115909;28;20114;-70
2021/08/31 10:33:40;;;;;;;3.55;1.95;;;;;;;21.22;59.83;99993.06;5116158;28;20512;-70
2021/08/31 10:36:11;;;;;;;2.70;1.70;;;;;;;21.57;59.27;100000.09;5116124;28;20043;-70
2021/08/31 10:38:53;;;;;;;2.42;1.70;;;;;;;21.53;58.42;99996.03;5114384;28;20556;-70
2021/08/31 10:41:44;;;;;;;5.35;1.92;;;;;;;21.83;58.54;99991.81;5115748;28;20044;-70
2021/08/31 10:44:15;;;;;;;2.85;1.70;;;;;;;21.92;57.64;99995.34;5115951;28;20040;-70
2021/08/31 10:47:07;;;;;;;2.45;1.60;;;;;;;22.21;56.90;99995.69;5114624;28;20108;-70
2021/08/31 10:50:25;;;;;;;2.67;1.70;;;;;;;22.51;55.05;99985.06;5115590;28;20039;-69
2021/08/31 10:53:04;;;;;;;3.75;1.90;;;;;;;22.49;55.35;99982.53;5115356;28;20043;-69
2021/08/31 10:55:54;;;;;;;2.72;1.60;;;;;;;22.11;55.87;99978.72;5115547;28;20055;-69
2021/08/31 10:58:51;;;;;;;2.17;1.42;;;;;;;22.00;54.51;99985.34;5115389;28;20089;-70
2021/08/31 11:01:21;;;;;;;3.83;1.83;;;;;;;22.06;54.90;99996.50;5115236;28;20104;-70
2021/08/31 11:03:51;;;;;;;3.20;1.45;;;;;;;22.17;55.32;99986.16;5115374;28;20051;-70
2021/08/31 11:06:36;;;;;;;2.97;1.55;;;;;;;21.99;56.03;99993.63;5115261;28;20044;-69
2021/08/31 11:09:08;;;;;;;2.38;1.60;;;;;;;21.91;56.02;99999.09;5115122;28;20043;-69
2021/08/31 11:11:39;;;;;;;2.70;1.67;;;;;;;21.71;56.31;99993.13;5114766;28;20043;-69
2021/08/31 11:14:07;;;;;;;2.33;1.50;;;;;;;21.70;57.12;99992.28;5115064;28;20389;-69
2021/08/31 11:16:37;;;;;;;2.50;1.60;;;;;;;22.06;56.68;99989.22;5114959;28;20476;-69
2021/08/31 11:19:22;;;;;;;3.78;1.40;;;;;;;22.47;55.73;99983.69;5113834;28;20052;-69
2021/08/31 11:21:52;;;;;;;3.38;1.50;;;;;;;22.31;55.08;99986.47;5114836;28;20035;-70
2021/08/31 11:24:20;;;;;;;2.30;1.60;;;;;;;22.02;55.42;99984.31;5114599;28;20039;-70
2021/08/31 11:26:57;;;;;;;8.15;1.80;;;;;;;22.22;55.45;99977.50;5113476;28;20031;-70
2021/08/31 11:29:26;;;;;;;3.40;1.90;;;;;;;22.28;56.16;99984.94;5115041;28;20046;-70
2021/08/31 11:32:02;;;;;;;5.70;1.60;;;;;;;22.34;55.77;99988.84;5114767;28;20048;-69
2021/08/31 11:34:34;;;;;;;2.22;1.40;;;;;;;22.44;55.32;99989.50;5114517;28;20104;-70
2021/08/31 11:37:05;;;;;;;4.75;1.80;;;;;;;22.33;55.73;99987.16;5114898;28;20557;-69
2021/08/31 11:39:35;;;;;;;1.88;1.40;;;;;;;22.21;56.02;99973.94;5114684;28;20067;-70